Time,TemperatureF,DewpointF,PressureIn,WindDirection,WindDirectionDegrees,WindSpeedMPH,WindSpeedGustMPH,Humidity,HourlyPrecipIn,Conditions,Clouds,dailyrainin,SolarRadiationWatts/m^2,SoftwareType,DateUTC
2013-02-20 00:01:00,31.0,26.0,-100.00,NNE,27,8.0,13.0,83,-99.99,,,-99.99,-0.100000,,2013-02-20 07:01:00,
2013-02-20 00:11:00,31.0,26.0,-100.00,NNE,23,10.0,13.0,83,-99.99,,,-99.99,-0.100000,,2013-02-20 07:11:00,
2013-02-20 00:21:00,31.0,27.0,-100.00,NNE,20,10.0,11.0,84,-99.99,,,-99.99,0.000000,,2013-02-20 07:21:00,
2013-02-20 00:31:00,31.0,27.0,-100.00,NNE,14,9.0,12.0,84,-99.99,,,-99.99,0.000000,,2013-02-20 07:31:00,
2013-02-20 00:41:00,31.0,27.0,-100.00,North,349,7.0,9.0,85,-99.99,,,-99.99,-0.100000,,2013-02-20 07:41:00,
2013-02-20 00:51:00,31.0,27.0,-100.00,NNW,346,8.0,10.0,84,-99.99,,,-99.99,0.000000,,2013-02-20 07:51:00,
2013-02-20 01:01:00,31.0,26.0,-100.00,NNW,335,10.0,14.0,83,-99.99,,,-99.99,-0.100000,,2013-02-20 08:01:00,
2013-02-20 01:11:00,31.0,26.0,-100.00,NNW,342,10.0,14.0,80,-99.99,,,-99.99,-0.100000,,2013-02-20 08:11:00,
2013-02-20 01:21:00,32.0,26.0,-100.00,NNW,345,9.0,12.0,79,-99.99,,,-99.99,-0.100000,,2013-02-20 08:21:00,
2013-02-20 01:31:00,31.0,26.0,-100.00,ESE,102,4.0,7.0,80,-99.99,,,-99.99,-0.100000,,2013-02-20 08:31:00,
2013-02-20 01:41:00,32.0,26.0,-100.00,ENE,73,3.0,5.0,80,-99.99,,,-99.99,-0.100000,,2013-02-20 08:41:00,
2013-02-20 01:51:00,32.0,27.0,-100.00,NNE,24,6.0,8.0,81,-99.99,,,-99.99,-0.100000,,2013-02-20 08:51:00,
2013-02-20 02:01:00,32.0,27.0,-100.00,North,0,6.0,7.0,81,-99.99,,,-99.99,-0.100000,,2013-02-20 09:01:00,
2013-02-20 02:11:00,31.0,26.0,-100.00,NNW,339,8.0,9.0,81,-99.99,,,-99.99,-0.100000,,2013-02-20 09:11:00,
2013-02-20 02:21:00,31.0,26.0,-100.00,North,5,10.0,12.0,80,-99.99,,,-99.99,-0.100000,,2013-02-20 09:21:00,
2013-02-20 02:31:00,31.0,25.0,-100.00,North,3,10.0,12.0,79,-99.99,,,-99.99,-0.100000,,2013-02-20 09:31:00,
2013-02-20 02:41:00,31.0,25.0,-100.00,NNE,19,8.0,10.0,80,-99.99,,,-99.99,0.000000,,2013-02-20 09:41:00,
2013-02-20 02:51:00,31.0,25.0,-100.00,NNE,12,8.0,10.0,80,-99.99,,,-99.99,-0.100000,,2013-02-20 09:51:00,
2013-02-20 03:01:00,31.0,25.0,-100.00,North,6,7.0,11.0,80,-99.99,,,-99.99,0.000000,,2013-02-20 10:01:00,
2013-02-20 03:11:00,31.0,25.0,-100.00,North,6,8.0,10.0,79,-99.99,,,-99.99,-0.100000,,2013-02-20 10:11:00,
2013-02-20 03:21:00,31.0,25.0,-100.00,NNE,16,12.0,15.0,79,-99.99,,,-99.99,0.000000,,2013-02-20 10:21:00,
2013-02-20 03:31:00,31.0,25.0,-100.00,NNE,33,10.0,12.0,79,-99.99,,,-99.99,-0.100000,,2013-02-20 10:31:00,
2013-02-20 03:41:00,31.0,25.0,-100.00,NE,36,10.0,12.0,79,-99.99,,,-99.99,-0.100000,,2013-02-20 10:41:00,
2013-02-20 03:51:00,30.0,25.0,-100.00,NNE,27,11.0,12.0,79,-99.99,,,-99.99,-0.100000,,2013-02-20 10:51:00,
2013-02-20 04:01:00,31.0,25.0,-100.00,NNE,17,10.0,14.0,79,-99.99,,,-99.99,-0.100000,,2013-02-20 11:01:00,
2013-02-20 04:11:00,31.0,25.0,-100.00,NNE,22,9.0,11.0,78,-99.99,,,-99.99,-0.100000,,2013-02-20 11:11:00,
2013-02-20 04:21:00,31.0,25.0,-100.00,NE,50,6.0,7.0,78,-99.99,,,-99.99,-0.100000,,2013-02-20 11:21:00,
2013-02-20 04:31:00,31.0,25.0,-100.00,NE,52,4.0,5.0,77,-99.99,,,-99.99,-0.100000,,2013-02-20 11:31:00,
2013-02-20 04:41:00,31.0,25.0,-100.00,NE,55,4.0,6.0,77,-99.99,,,-99.99,-0.100000,,2013-02-20 11:41:00,
2013-02-20 04:52:00,31.0,25.0,-100.00,ENE,61,4.0,5.0,78,-99.99,,,-99.99,-0.100000,,2013-02-20 11:52:00,
2013-02-20 05:01:00,31.0,25.0,-100.00,ENE,63,4.0,6.0,79,-99.99,,,-99.99,0.000000,,2013-02-20 12:01:00,
2013-02-20 05:11:00,31.0,25.0,-100.00,NE,46,5.0,9.0,78,-99.99,,,-99.99,-0.100000,,2013-02-20 12:11:00,
2013-02-20 05:21:00,31.0,25.0,-100.00,NE,48,7.0,10.0,78,-99.99,,,-99.99,-0.100000,,2013-02-20 12:21:00,
2013-02-20 05:31:00,31.0,25.0,-100.00,East,99,6.0,8.0,80,-99.99,,,-99.99,-0.100000,,2013-02-20 12:31:00,
2013-02-20 05:41:00,30.0,25.0,-100.00,East,90,6.0,7.0,79,-99.99,,,-99.99,-0.100000,,2013-02-20 12:41:00,
2013-02-20 05:52:00,30.0,26.0,-100.00,East,99,6.0,7.0,83,-99.99,,,-99.99,-0.100000,,2013-02-20 12:52:00,
2013-02-20 06:01:00,30.0,25.0,-100.00,ESE,105,5.0,6.0,83,-99.99,,,-99.99,-0.100000,,2013-02-20 13:01:00,
2013-02-20 06:11:00,29.0,25.0,-100.00,SE,132,6.0,7.0,84,-99.99,,,-99.99,-0.100000,,2013-02-20 13:11:00,
2013-02-20 06:22:00,29.0,25.0,-100.00,SE,143,5.0,5.0,85,-99.99,,,-99.99,-0.100000,,2013-02-20 13:22:00,
2013-02-20 06:31:00,29.0,25.0,-100.00,South,178,5.0,6.0,86,-99.99,,,-99.99,-0.100000,,2013-02-20 13:31:00,
2013-02-20 06:42:00,29.0,26.0,-100.00,South,186,5.0,5.0,87,-99.99,,,-99.99,-0.100000,,2013-02-20 13:42:00,
2013-02-20 06:51:00,29.0,25.0,-100.00,SSW,194,4.0,5.0,86,-99.99,,,-99.99,-0.100000,,2013-02-20 13:51:00,
2013-02-20 07:01:00,29.0,25.0,-100.00,SW,236,3.0,4.0,85,-99.99,,,-99.99,-0.100000,,2013-02-20 14:01:00,
2013-02-20 07:11:00,29.0,25.0,-100.00,SW,231,4.0,5.0,86,-99.99,,,-99.99,0.000000,,2013-02-20 14:11:00,
2013-02-20 07:21:00,29.0,25.0,-100.00,WSW,239,4.0,5.0,86,-99.99,,,-99.99,0.000000,,2013-02-20 14:21:00,
2013-02-20 07:32:00,29.0,25.0,-100.00,SW,235,4.0,5.0,86,-99.99,,,-99.99,0.400000,,2013-02-20 14:32:00,
2013-02-20 07:42:00,29.0,25.0,-100.00,SW,233,4.0,5.0,86,-99.99,,,-99.99,1.100000,,2013-02-20 14:42:00,
2013-02-20 07:52:00,29.0,26.0,-100.00,WSW,240,4.0,6.0,86,-99.99,,,-99.99,3.200000,,2013-02-20 14:52:00,
2013-02-20 08:01:00,29.0,26.0,-100.00,West,264,5.0,6.0,86,-99.99,,,-99.99,7.700000,,2013-02-20 15:01:00,
2013-02-20 08:11:00,29.0,26.0,-100.00,WSW,257,5.0,6.0,89,-99.99,,,-99.99,13.800000,,2013-02-20 15:11:00,
2013-02-20 08:22:00,30.0,27.0,-100.00,WSW,241,5.0,6.0,88,-99.99,,,-99.99,15.300000,,2013-02-20 15:22:00,
2013-02-20 08:31:00,30.0,27.0,-100.00,WSW,240,5.0,6.0,88,-99.99,,,-99.99,15.000000,,2013-02-20 15:31:00,
2013-02-20 08:41:00,30.0,27.0,-100.00,WSW,250,6.0,8.0,88,-99.99,,,-99.99,22.500000,,2013-02-20 15:41:00,
2013-02-20 08:51:00,30.0,27.0,-100.00,WSW,252,5.0,7.0,88,-99.99,,,-99.99,29.500000,,2013-02-20 15:51:00,
2013-02-20 09:01:00,31.0,28.0,-100.00,WSW,251,5.0,7.0,88,-99.99,,,-99.99,31.200001,,2013-02-20 16:01:00,
2013-02-20 09:11:00,31.0,28.0,-100.00,WSW,247,5.0,6.0,88,-99.99,,,-99.99,32.599998,,2013-02-20 16:11:00,
2013-02-20 09:21:00,31.0,28.0,-100.00,WSW,239,5.0,6.0,88,-99.99,,,-99.99,30.900000,,2013-02-20 16:21:00,
2013-02-20 09:32:00,31.0,28.0,-100.00,SW,224,4.0,6.0,88,-99.99,,,-99.99,28.900000,,2013-02-20 16:32:00,
2013-02-20 09:41:00,31.0,28.0,-100.00,SW,234,5.0,7.0,89,-99.99,,,-99.99,27.299999,,2013-02-20 16:41:00,
2013-02-20 09:51:00,31.0,28.0,-100.00,SW,228,5.0,8.0,89,-99.99,,,-99.99,35.400002,,2013-02-20 16:51:00,
2013-02-20 10:01:00,31.0,28.0,-100.00,SW,234,4.0,6.0,89,-99.99,,,-99.99,55.200001,,2013-02-20 17:01:00,
2013-02-20 10:11:00,31.0,29.0,-100.00,SW,221,4.0,6.0,90,-99.99,,,-99.99,66.400002,,2013-02-20 17:11:00,
2013-02-20 10:21:00,31.0,29.0,-100.00,WSW,246,4.0,6.0,90,-99.99,,,-99.99,85.300003,,2013-02-20 17:21:00,
2013-02-20 10:32:00,31.0,29.0,-100.00,West,265,6.0,7.0,90,-99.99,,,-99.99,91.500000,,2013-02-20 17:32:00,
2013-02-20 10:41:00,32.0,29.0,-100.00,West,279,6.0,7.0,89,-99.99,,,-99.99,115.400002,,2013-02-20 17:41:00,
2013-02-20 10:52:00,32.0,29.0,-100.00,West,262,6.0,7.0,89,-99.99,,,-99.99,152.600006,,2013-02-20 17:52:00,
2013-02-20 11:02:00,32.0,29.0,-100.00,West,271,7.0,9.0,89,-99.99,,,-99.99,145.399994,,2013-02-20 18:02:00,
2013-02-20 11:11:00,32.0,29.0,-100.00,West,276,8.0,9.0,90,-99.99,,,-99.99,131.600006,,2013-02-20 18:11:00,
2013-02-20 11:21:00,32.0,29.0,-100.00,West,276,8.0,9.0,90,-99.99,,,-99.99,123.500000,,2013-02-20 18:21:00,
2013-02-20 11:31:00,32.0,29.0,-100.00,West,280,11.0,13.0,88,-99.99,,,-99.99,111.199997,,2013-02-20 18:31:00,
2013-02-20 11:41:00,31.0,28.0,-100.00,West,268,12.0,15.0,88,-99.99,,,-99.99,131.000000,,2013-02-20 18:41:00,
2013-02-20 11:51:00,30.0,27.0,-100.00,WSW,255,12.0,17.0,87,-99.99,,,-99.99,110.699997,,2013-02-20 18:51:00,
2013-02-20 12:01:00,29.0,26.0,-100.00,WSW,255,13.0,18.0,86,-99.99,,,-99.99,82.300003,,2013-02-20 19:01:00,
2013-02-20 12:11:00,29.0,26.0,-100.00,WSW,251,12.0,17.0,87,-99.99,,,-99.99,103.300003,,2013-02-20 19:11:00,
2013-02-20 12:21:00,28.0,25.0,-100.00,WSW,237,11.0,15.0,87,-99.99,,,-99.99,123.099998,,2013-02-20 19:21:00,
2013-02-20 12:31:00,28.0,25.0,-100.00,WSW,241,12.0,15.0,87,-99.99,,,-99.99,211.300003,,2013-02-20 19:31:00,
2013-02-20 12:41:00,28.0,25.0,-100.00,WSW,243,12.0,16.0,86,-99.99,,,-99.99,212.100006,,2013-02-20 19:41:00,
2013-02-20 12:51:00,28.0,25.0,-100.00,WSW,253,13.0,18.0,87,-99.99,,,-99.99,187.500000,,2013-02-20 19:51:00,
2013-02-20 13:01:00,28.0,25.0,-100.00,WSW,237,11.0,15.0,86,-99.99,,,-99.99,205.800003,,2013-02-20 20:01:00,
2013-02-20 13:11:00,28.0,24.0,-100.00,SW,232,12.0,17.0,87,-99.99,,,-99.99,205.800003,,2013-02-20 20:11:00,
2013-02-20 13:21:00,28.0,24.0,-100.00,WSW,237,15.0,21.0,86,-99.99,,,-99.99,188.399994,,2013-02-20 20:21:00,
2013-02-20 13:31:00,28.0,24.0,-100.00,SW,231,12.0,19.0,85,-99.99,,,-99.99,138.199997,,2013-02-20 20:31:00,
2013-02-20 13:41:00,27.0,23.0,-100.00,SW,234,12.0,17.0,85,-99.99,,,-99.99,114.300003,,2013-02-20 20:41:00,
2013-02-20 13:51:00,27.0,23.0,-100.00,SW,232,12.0,19.0,85,-99.99,,,-99.99,98.000000,,2013-02-20 20:51:00,
2013-02-20 14:01:00,27.0,23.0,-100.00,WSW,237,13.0,17.0,85,-99.99,,,-99.99,102.199997,,2013-02-20 21:01:00,
2013-02-20 14:11:00,27.0,23.0,-100.00,SW,234,14.0,20.0,85,-99.99,,,-99.99,114.400002,,2013-02-20 21:11:00,
2013-02-20 14:21:00,27.0,23.0,-100.00,WSW,240,13.0,18.0,86,-99.99,,,-99.99,151.800003,,2013-02-20 21:21:00,
2013-02-20 14:31:00,27.0,23.0,-100.00,WSW,245,14.0,19.0,85,-99.99,,,-99.99,173.800003,,2013-02-20 21:31:00,
2013-02-20 14:41:00,27.0,23.0,-100.00,WSW,243,15.0,19.0,85,-99.99,,,-99.99,175.399994,,2013-02-20 21:41:00,
2013-02-20 14:51:00,27.0,23.0,-100.00,WSW,242,13.0,18.0,85,-99.99,,,-99.99,163.399994,,2013-02-20 21:51:00,
2013-02-20 15:01:00,27.0,24.0,-100.00,WSW,248,14.0,21.0,85,-99.99,,,-99.99,161.800003,,2013-02-20 22:01:00,
2013-02-20 15:11:00,28.0,24.0,-100.00,SW,235,11.0,15.0,85,-99.99,,,-99.99,167.899994,,2013-02-20 22:11:00,
2013-02-20 15:21:00,28.0,24.0,-100.00,WSW,243,12.0,17.0,86,-99.99,,,-99.99,173.199997,,2013-02-20 22:21:00,
2013-02-20 15:31:00,28.0,24.0,-100.00,WSW,245,13.0,21.0,85,-99.99,,,-99.99,182.300003,,2013-02-20 22:31:00,
2013-02-20 15:41:00,28.0,24.0,-100.00,WSW,242,13.0,20.0,85,-99.99,,,-99.99,104.800003,,2013-02-20 22:41:00,
2013-02-20 15:51:00,28.0,24.0,-100.00,WSW,242,12.0,17.0,86,-99.99,,,-99.99,92.800003,,2013-02-20 22:51:00,
2013-02-20 16:01:00,28.0,24.0,-100.00,WSW,240,11.0,15.0,87,-99.99,,,-99.99,139.100006,,2013-02-20 23:01:00,
2013-02-20 16:11:00,28.0,25.0,-100.00,WSW,250,14.0,19.0,85,-99.99,,,-99.99,122.400002,,2013-02-20 23:11:00,
2013-02-20 16:21:00,29.0,24.0,-100.00,WSW,247,12.0,17.0,82,-99.99,,,-99.99,86.599998,,2013-02-20 23:21:00,
2013-02-20 16:31:00,29.0,24.0,-100.00,WSW,245,14.0,19.0,81,-99.99,,,-99.99,76.099998,,2013-02-20 23:31:00,
2013-02-20 16:42:00,29.0,24.0,-100.00,WSW,247,13.0,18.0,81,-99.99,,,-99.99,69.199997,,2013-02-20 23:42:00,
2013-02-20 16:52:00,29.0,24.0,-100.00,WSW,239,10.0,16.0,81,-99.99,,,-99.99,59.500000,,2013-02-20 23:52:00,
2013-02-20 17:02:00,29.0,24.0,-100.00,SW,236,10.0,14.0,81,-99.99,,,-99.99,56.200001,,2013-02-21 00:02:00,
2013-02-20 17:11:00,29.0,25.0,-100.00,SW,228,10.0,13.0,82,-99.99,,,-99.99,39.599998,,2013-02-21 00:11:00,
2013-02-20 17:21:00,29.0,25.0,-100.00,SW,225,10.0,15.0,84,-99.99,,,-99.99,35.599998,,2013-02-21 00:21:00,
2013-02-20 17:31:00,29.0,25.0,-100.00,SW,229,7.0,11.0,84,-99.99,,,-99.99,33.299999,,2013-02-21 00:31:00,
2013-02-20 17:41:00,30.0,25.0,-100.00,SW,223,9.0,12.0,81,-99.99,,,-99.99,37.099998,,2013-02-21 00:41:00,
2013-02-20 17:52:00,30.0,25.0,-100.00,SSW,213,11.0,14.0,80,-99.99,,,-99.99,50.599998,,2013-02-21 00:52:00,
2013-02-20 18:01:00,30.0,25.0,-100.00,SW,215,9.0,13.0,81,-99.99,,,-99.99,30.400000,,2013-02-21 01:01:00,
2013-02-20 18:11:00,30.0,25.0,-100.00,SSW,210,8.0,11.0,81,-99.99,,,-99.99,20.600000,,2013-02-21 01:11:00,
2013-02-20 18:21:00,30.0,25.0,-100.00,SSW,212,11.0,13.0,81,-99.99,,,-99.99,8.800000,,2013-02-21 01:21:00,
2013-02-20 18:32:00,30.0,25.0,-100.00,SSW,211,8.0,11.0,82,-99.99,,,-99.99,3.900000,,2013-02-21 01:32:00,
2013-02-20 18:41:00,30.0,25.0,-100.00,SW,219,10.0,14.0,79,-99.99,,,-99.99,0.400000,,2013-02-21 01:41:00,
2013-02-20 18:51:00,30.0,24.0,-100.00,SW,217,9.0,13.0,77,-99.99,,,-99.99,0.000000,,2013-02-21 01:51:00,
2013-02-20 19:01:00,30.0,24.0,-100.00,SW,220,9.0,12.0,77,-99.99,,,-99.99,-0.100000,,2013-02-21 02:01:00,
2013-02-20 19:11:00,30.0,24.0,-100.00,SW,218,9.0,13.0,76,-99.99,,,-99.99,-0.100000,,2013-02-21 02:11:00,
2013-02-20 19:21:00,30.0,23.0,-100.00,SW,215,11.0,13.0,77,-99.99,,,-99.99,0.000000,,2013-02-21 02:21:00,
2013-02-20 19:32:00,29.0,23.0,-100.00,SW,215,12.0,16.0,77,-99.99,,,-99.99,0.000000,,2013-02-21 02:32:00,
2013-02-20 19:41:00,29.0,23.0,-100.00,SW,215,12.0,16.0,77,-99.99,,,-99.99,0.000000,,2013-02-21 02:41:00,
2013-02-20 19:51:00,29.0,23.0,-100.00,SW,215,12.0,16.0,77,-99.99,,,-99.99,0.000000,,2013-02-21 02:51:00,
2013-02-20 20:01:00,28.0,22.0,-100.00,SW,215,12.0,15.0,78,-99.99,,,-99.99,-0.100000,,2013-02-21 03:01:00,
2013-02-20 20:11:00,28.0,22.0,-100.00,SW,217,12.0,16.0,78,-99.99,,,-99.99,0.000000,,2013-02-21 03:11:00,
2013-02-20 20:21:00,28.0,22.0,-100.00,SW,215,11.0,14.0,78,-99.99,,,-99.99,-0.100000,,2013-02-21 03:21:00,
2013-02-20 20:31:00,28.0,22.0,-100.00,SW,216,13.0,16.0,78,-99.99,,,-99.99,-0.100000,,2013-02-21 03:31:00,
2013-02-20 20:41:00,28.0,22.0,-100.00,SW,217,11.0,17.0,77,-99.99,,,-99.99,-0.100000,,2013-02-21 03:41:00,
2013-02-20 20:51:00,28.0,22.0,-100.00,SW,217,11.0,16.0,77,-99.99,,,-99.99,-0.100000,,2013-02-21 03:51:00,
2013-02-20 21:01:00,28.0,22.0,-100.00,SW,216,11.0,15.0,77,-99.99,,,-99.99,-0.100000,,2013-02-21 04:01:00,
2013-02-20 21:11:00,28.0,21.0,-100.00,SW,222,11.0,17.0,76,-99.99,,,-99.99,0.000000,,2013-02-21 04:11:00,
2013-02-20 21:21:00,28.0,21.0,-100.00,SW,223,10.0,14.0,74,-99.99,,,-99.99,-0.100000,,2013-02-21 04:21:00,
2013-02-20 21:31:00,28.0,21.0,-100.00,SW,224,10.0,15.0,73,-99.99,,,-99.99,-0.100000,,2013-02-21 04:31:00,
2013-02-20 21:41:00,28.0,21.0,-100.00,SW,218,9.0,13.0,74,-99.99,,,-99.99,-0.100000,,2013-02-21 04:41:00,
2013-02-20 21:51:00,28.0,21.0,-100.00,SW,217,8.0,11.0,74,-99.99,,,-99.99,-0.100000,,2013-02-21 04:51:00,
2013-02-20 22:02:00,28.0,20.0,-100.00,SW,224,8.0,12.0,73,-99.99,,,-99.99,-0.100000,,2013-02-21 05:02:00,
2013-02-20 22:11:00,27.0,20.0,-100.00,SW,224,9.0,13.0,73,-99.99,,,-99.99,0.000000,,2013-02-21 05:11:00,
2013-02-20 22:21:00,27.0,20.0,-100.00,SW,229,9.0,13.0,72,-99.99,,,-99.99,0.000000,,2013-02-21 05:21:00,
2013-02-20 22:32:00,27.0,19.0,-100.00,SW,234,9.0,15.0,71,-99.99,,,-99.99,0.000000,,2013-02-21 05:32:00,
2013-02-20 22:41:00,27.0,19.0,-100.00,SW,233,9.0,15.0,71,-99.99,,,-99.99,-0.100000,,2013-02-21 05:41:00,
2013-02-20 22:51:00,27.0,19.0,-100.00,SW,233,9.0,12.0,72,-99.99,,,-99.99,0.000000,,2013-02-21 05:51:00,
2013-02-20 23:01:00,27.0,19.0,-100.00,SW,233,9.0,13.0,71,-99.99,,,-99.99,0.000000,,2013-02-21 06:01:00,
2013-02-20 23:10:00,27.0,19.0,-100.00,SW,232,6.0,11.0,72,-99.99,,,-99.99,-0.100000,,2013-02-21 06:10:00,
2013-02-20 23:20:00,27.0,19.0,-100.00,WSW,239,5.0,10.0,72,-99.99,,,-99.99,0.000000,,2013-02-21 06:20:00,
2013-02-20 23:31:00,27.0,19.0,-100.00,WSW,242,7.0,10.0,72,-99.99,,,-99.99,-0.100000,,2013-02-21 06:31:00,
2013-02-20 23:41:00,27.0,19.0,-100.00,SW,235,6.0,8.0,72,-99.99,,,-99.99,0.000000,,2013-02-21 06:41:00,
2013-02-20 23:51:00,27.0,19.0,-100.00,SW,236,8.0,13.0,72,-99.99,,,-99.99,0.000000,,2013-02-21 06:51:00,